Nearby METAR Reports

 

KMTN - Baltimore/Martin, Maryland, USA
Distance from station: SSE 8mi, 13km
Updated: Fri, 06-May-2016 7:50pm EDT
Rain, Overcast
Rain, Overcast
 Wind from calm
Wind: Calm
Temperature: 54°F , 12°C
Dew Point: 54°F , 12°C
Humidity: 100%
Barometer: 29.69 inHg , 1005.4 hPa
Summary: Rain
Clouds: Overcast
Visibility: 10 miles , 16 km
Cloud details: Partly cloudy 600 ft
Mostly cloudy 1500 ft
Overcast 2100 ft
2016/05/06 23:50 KMTN 062350Z 00000KT 10SM RA SCT006 BKN015 OVC021 12/12 A2969
KDMH - Baltimore/Dwntwn, Maryland, USA
Distance from station: SW 12mi, 19km
Updated: Fri, 06-May-2016 7:54pm EDT

 
Temperature: 52°F , 11°C
Dew Point: 48°F , 9°C
Humidity: 88%
Barometer: 29.67 inHg , 1004.7 hPa
2016/05/06 23:54 KDMH 062354Z AUTO 11/09 A2967 RMK AO1 SLP048 P0001 60015 T01110094 10117 20106 51005
 
KBWI - Balto/Wash Intl, Maryland, USA
Distance from station: SSW 20mi, 33km
Updated: Fri, 06-May-2016 7:54pm EDT
Light rain, Overcast
Light rain, Overcast
 Wind from WNW
Wind: WNW 3 mph , 6 km/h
Temperature: 52°F , 11°C
Dew Point: 48°F , 9°C
Humidity: 88%
Barometer: 29.67 inHg , 1004.7 hPa
Summary: Light rain
Clouds: Overcast
Visibility: 9 miles , 14 km
Cloud details: Partly cloudy 1100 ft
Partly cloudy 4500 ft
Overcast 6000 ft
2016/05/06 23:54 KBWI 062354Z 30003KT 9SM -RA SCT011 SCT045 OVC060 11/09 A2967 RMK AO2 RAE12B29 SLP047 P0001 60027 T01060089 10111 20100 52007
KDMW - Carroll Cnty, Maryland, USA
Distance from station: WNW 30mi, 48km
Updated: Fri, 06-May-2016 8:15pm EDT
Rain, Mostly cloudy
Rain, Mostly cloudy
 Wind from calm
Wind: Calm
Temperature: 50°F , 10°C
Dew Point: 46°F , 8°C
Humidity: 88%
Barometer: 29.67 inHg , 1004.7 hPa
Summary: Rain
Clouds: Mostly cloudy
Visibility: 5 miles , 8 km
Cloud details: Mostly cloudy 800 ft
Mostly cloudy 1600 ft
2016/05/07 00:15 KDMW 070015Z AUTO 00000KT 5SM RA BKN008 BKN016 10/08 A2967 RMK AO2 P0011
 
KNAK - Annapolis/Naval, Maryland, USA
Distance from station: S 30mi, 48km
Updated: Fri, 06-May-2016 8:00pm EDT
Overcast
Overcast
 Wind from calm
Wind: Calm
Temperature: 52°F , 11°C
Dew Point: 48°F , 9°C
Humidity: 88%
Barometer: 29.68 inHg , 1005.1 hPa
Clouds: Overcast
Visibility: 10 miles , 16 km
Cloud details: Partly cloudy 1200 ft
Mostly cloudy 7500 ft
Overcast 10000 ft
2016/05/07 00:00 KNAK 070000Z AUTO 00000KT 10SM SCT012 BKN075 OVC100 11/09 A2968 RMK AO2 T01110094
KW29 - Stevensville, Maryland, USA
Distance from station: SSE 31mi, 50km
Updated: Fri, 06-May-2016 8:15pm EDT
Overcast
Overcast
 Wind from calm
Wind: Calm
Temperature: 50°F , 10°C
Dew Point: 50°F , 10°C
Humidity: 100%
Barometer: 29.68 inHg , 1005.1 hPa
Clouds: Overcast
Visibility: 10 miles , 16 km
Cloud details: Overcast 8500 ft
2016/05/07 00:15 KW29 070015Z AUTO 00000KT 10SM OVC085 10/10 A2968 RMK AO2
 
KCGS - College Park, Maryland, USA
Distance from station: SW 38mi, 61km
Updated: Fri, 06-May-2016 8:15pm EDT
Overcast
Overcast
 Wind from calm
Wind: Calm
Temperature: 50°F , 10°C
Dew Point: 48°F , 9°C
Humidity: 94%
Barometer: 29.68 inHg , 1005.1 hPa
Clouds: Overcast
Visibility: 5 miles , 8 km
Cloud details: Overcast 1600 ft
2016/05/07 00:15 KCGS 070015Z AUTO 00000KT 5SM OVC016 10/09 A2968 RMK AO1
KGAI - Gaithersburg, Maryland, USA
Distance from station: WSW 40mi, 65km
Updated: Fri, 06-May-2016 8:15pm EDT
Overcast
Overcast
 Wind from NW
Wind: NW 6 mph , 9 km/h
Temperature: 50°F , 10°C
Wind Chill: 48°F , 9°C
Dew Point: 46°F , 8°C
Humidity: 88%
Barometer: 29.72 inHg , 1006.4 hPa
Clouds: Overcast
Visibility: 2 1/2 miles , 2 km
Cloud details: Mostly cloudy 600 ft
Mostly cloudy 1900 ft
Overcast 4100 ft
2016/05/07 00:15 KGAI 070015Z AUTO 31005KT 2 1/2SM BKN006 BKN019 OVC041 10/08 A2972 RMK AO1
 
KTHV - York, Pennsylvania, USA
Distance from station: NNW 40mi, 65km
Updated: Fri, 06-May-2016 8:19pm EDT
Light rain, Mist, Overcast
Light rain, Mist, Overcast
 Wind from NE
Wind: NE 12 mph , 19 km/h, Gust: 22 mph , 35 km/h
Temperature: 52°F , 11°C
Dew Point: 48°F , 9°C
Humidity: 88%
Barometer: 29.68 inHg , 1005.1 hPa
Summary: Light rain, Mist
Clouds: Overcast
Visibility: 3 miles , 5 km
Cloud details: Partly cloudy 700 ft
Mostly cloudy 1000 ft
Overcast 1700 ft
2016/05/07 00:19 KTHV 070019Z AUTO 05010G19KT 3SM -RA BR SCT007 BKN010 OVC017 11/09 A2968 RMK AO2 RAB2355 P0002 T01060094
KFDK - Frederick, Maryland, USA
Distance from station: W 47mi, 75km
Updated: Fri, 06-May-2016 7:50pm EDT
Rain, Overcast
Rain, Overcast
 Wind from calm
Wind: Calm
Temperature: 52°F , 11°C
Dew Point: 52°F , 11°C
Humidity: 100%
Barometer: 29.72 inHg , 1006.4 hPa
Summary: Rain
Clouds: Overcast
Visibility: 3 miles , 5 km
Cloud details: Mostly cloudy 2100 ft
Mostly cloudy 2900 ft
Overcast 3800 ft
2016/05/06 23:50 KFDK 062350Z 00000KT 3SM RA BKN021 BKN029 OVC038 11/11 A2972
 
KESN - Easton/Newnam, Maryland, USA
Distance from station: SSE 48mi, 78km
Updated: Fri, 06-May-2016 7:50pm EDT
Mostly cloudy
Mostly cloudy
 Wind from calm
Wind: Calm
Barometer: 29.71 inHg , 1006.1 hPa
Clouds: Mostly cloudy
Visibility: 7 miles , 11 km
Cloud details: Mostly cloudy 700 ft
Mostly cloudy 1400 ft
Mostly cloudy 2400 ft
2016/05/06 23:50 KESN 062350Z 00000KT 7SM BKN007 BKN014 BKN024 A2971
KDCA - Washington/Natl, Washington D.c., USA
Distance from station: SW 49mi, 79km
Updated: Fri, 06-May-2016 7:52pm EDT
Overcast
Overcast
 Wind from W
Wind: W 7 mph , 11 km/h
Temperature: 52°F , 11°C
Dew Point: 48°F , 9°C
Humidity: 88%
Barometer: 29.69 inHg , 1005.4 hPa
Clouds: Overcast
Visibility: 10 miles , 16 km
Cloud details: Few Clouds 1400 ft
Partly cloudy 6000 ft
Mostly cloudy 10000 ft
Overcast 20000 ft
2016/05/06 23:52 KDCA 062352Z 27006KT 10SM FEW014 SCT060 BKN100 OVC200 11/09 A2969 RMK AO2 RAE2258B18E37 SLP052 P0000 60021 T01110089 10128 20106 53006
 
KLNS - Lancaster, Pennsylvania, USA
Distance from station: N 49mi, 79km
Updated: Fri, 06-May-2016 7:53pm EDT
Overcast
Overcast
 Wind from ENE
Wind: ENE 16 mph , 26 km/h, Gust: 23 mph , 37 km/h
Temperature: 50°F , 10°C
Wind Chill: 44°F , 7°C
Dew Point: 48°F , 9°C
Humidity: 94%
Barometer: 29.67 inHg , 1004.7 hPa
Clouds: Overcast
Visibility: 10 miles , 16 km
Cloud details: Overcast 1300 ft
2016/05/06 23:53 KLNS 062353Z 06014G20KT 10SM OVC013 10/09 A2967 RMK AO2 RAE20 SLP048 P0002 60005 T01000089 10117 20100 53007
KILG - Wilmington, Delaware, USA
Distance from station: ENE 50mi, 81km
Updated: Fri, 06-May-2016 7:58pm EDT
Overcast
Overcast
 Wind from SSE
Wind: SSE 8 mph , 13 km/h
Temperature: 52°F , 11°C
Dew Point: 48°F , 9°C
Humidity: 88%
Barometer: 29.70 inHg , 1005.8 hPa
Clouds: Overcast
Visibility: 10 miles , 16 km
Cloud details: Few Clouds 600 ft
Partly cloudy 1300 ft
Overcast 3500 ft
2016/05/06 23:58 KILG 062358Z 15007KT 10SM FEW006 SCT013 OVC035 11/09 A2970 RMK AO2 T01060094 $